createdAt,value
2024-05-09T00:02:15.695Z,90.70
2024-05-09T00:07:20.584Z,90.25
2024-05-09T00:12:25.584Z,91.59
2024-05-09T00:17:31.000Z,91.92
2024-05-09T00:22:35.922Z,92.36
2024-05-09T00:27:41.754Z,92.19
2024-05-09T00:32:46.671Z,93.12
2024-05-09T00:37:51.574Z,92.17
2024-05-09T00:42:56.469Z,91.75
2024-05-09T00:48:06.470Z,91.98
2024-05-09T00:53:17.092Z,92.27
2024-05-09T00:58:25.779Z,93.20
2024-05-09T01:03:30.939Z,93.95
2024-05-09T01:08:36.074Z,93.70
2024-05-09T01:13:40.949Z,93.04
2024-05-09T01:18:46.063Z,92.76
2024-05-09T01:23:51.000Z,93.29
2024-05-09T01:28:55.875Z,92.93
2024-05-09T01:34:00.878Z,92.23
2024-05-09T01:39:05.881Z,92.11
2024-05-09T01:44:10.934Z,92.01
2024-05-09T01:49:15.852Z,91.34
2024-05-09T01:54:20.717Z,91.44
2024-05-09T01:59:25.773Z,90.79
2024-05-09T02:04:30.858Z,90.20
2024-05-09T02:09:35.740Z,90.47
2024-05-09T02:14:40.538Z,89.32
2024-05-09T02:19:45.353Z,89.09
2024-05-09T02:24:50.286Z,87.71
2024-05-09T02:29:55.091Z,87.21
2024-05-09T02:34:59.953Z,88.45
2024-05-09T02:40:07.105Z,88.46
2024-05-09T02:45:13.966Z,87.81
2024-05-09T02:50:26.614Z,88.25
2024-05-09T02:55:38.983Z,88.34
2024-05-09T03:00:43.897Z,88.46
2024-05-09T03:05:48.879Z,88.09
2024-05-09T03:10:53.756Z,88.98
2024-05-09T03:15:58.547Z,89.19
2024-05-09T03:21:03.457Z,90.27
2024-05-09T03:26:13.817Z,90.41
2024-05-09T03:31:21.774Z,89.47
2024-05-09T03:36:26.805Z,90.08
2024-05-09T03:41:31.700Z,89.30
2024-05-09T03:46:41.265Z,88.35
2024-05-09T03:51:46.795Z,89.15
2024-05-09T03:56:51.601Z,89.16
2024-05-09T04:01:56.594Z,88.76
2024-05-09T04:07:01.467Z,89.91
2024-05-09T04:12:06.395Z,88.47
2024-05-09T04:17:11.246Z,87.39
2024-05-09T04:22:16.276Z,87.59
2024-05-09T04:27:21.091Z,87.65
2024-05-09T04:32:26.010Z,87.01
2024-05-09T04:37:31.038Z,86.88
2024-05-09T04:42:35.849Z,86.89
2024-05-09T04:47:40.877Z,86.71
2024-05-09T04:52:45.927Z,86.17
2024-05-09T04:57:50.716Z,85.22
2024-05-09T05:02:55.627Z,83.46
2024-05-09T05:08:00.718Z,83.70
2024-05-09T05:13:24.764Z,83.85
2024-05-09T05:18:30.850Z,83.74
2024-05-09T05:23:35.780Z,82.02
2024-05-09T05:28:40.666Z,81.22
2024-05-09T05:33:45.576Z,79.82
2024-05-09T05:38:50.696Z,79.08
2024-05-09T05:43:55.564Z,78.20
2024-05-09T05:49:00.513Z,78.03
2024-05-09T05:54:05.358Z,75.38
2024-05-09T05:59:11.984Z,76.32
2024-05-09T06:04:18.202Z,75.98
2024-05-09T06:09:23.081Z,77.88
2024-05-09T06:14:28.105Z,77.54
2024-05-09T06:19:33.210Z,75.45
2024-05-09T06:24:38.190Z,73.58
2024-05-09T06:29:43.202Z,74.29
2024-05-09T06:34:49.859Z,74.19
2024-05-09T06:39:54.660Z,72.04
2024-05-09T06:44:59.463Z,71.63
2024-05-09T06:50:08.217Z,71.90
2024-05-09T06:55:15.238Z,68.21
2024-05-09T07:00:27.485Z,69.67
2024-05-09T07:05:40.511Z,65.81
2024-05-09T07:10:45.503Z,67.52
2024-05-09T07:15:50.459Z,63.11
2024-05-09T07:20:55.476Z,64.85
2024-05-09T07:26:00.476Z,63.55
2024-05-09T07:31:05.308Z,61.69
2024-05-09T07:36:10.250Z,65.23
2024-05-09T07:41:15.108Z,62.91
2024-05-09T07:56:35.264Z,66.26
2024-05-09T08:01:40.299Z,61.76
2024-05-09T08:06:45.234Z,59.73
2024-05-09T08:11:50.092Z,61.76
2024-05-09T08:16:54.953Z,61.70
2024-05-09T08:22:01.771Z,58.58
2024-05-09T08:27:06.693Z,58.29
2024-05-09T08:32:13.026Z,58.78
2024-05-09T08:37:22.397Z,57.90
2024-05-09T08:42:30.356Z,50.91
2024-05-09T08:47:35.245Z,49.94
2024-05-09T08:52:40.253Z,53.00
2024-05-09T08:57:45.181Z,52.35
2024-05-09T09:02:52.579Z,51.15
2024-05-09T09:07:57.415Z,47.97
2024-05-09T09:13:05.349Z,51.43
2024-05-09T09:18:12.360Z,52.77
2024-05-09T09:23:19.784Z,50.29
2024-05-09T09:28:26.162Z,51.04
2024-05-09T09:33:32.198Z,52.64
2024-05-09T09:38:40.004Z,50.63
2024-05-09T09:43:45.565Z,53.88
2024-05-09T09:48:50.586Z,55.25
2024-05-09T09:53:55.882Z,53.37
2024-05-09T09:59:01.565Z,55.60
2024-05-09T10:04:06.756Z,54.93
2024-05-09T10:09:18.098Z,53.65
2024-05-09T10:14:25.696Z,51.66
2024-05-09T10:19:31.144Z,53.68
2024-05-09T10:24:55.445Z,46.10
2024-05-09T10:30:06.871Z,48.02
2024-05-09T10:35:19.418Z,44.26
2024-05-09T10:40:29.398Z,49.94
2024-05-09T10:45:38.393Z,44.13
2024-05-09T10:50:46.990Z,43.32
2024-05-09T10:56:01.315Z,44.49
2024-05-09T11:01:07.351Z,46.10
2024-05-09T11:06:14.340Z,49.42
2024-05-09T11:11:20.134Z,47.86
2024-05-09T11:16:25.048Z,43.46
2024-05-09T11:21:29.968Z,41.96
2024-05-09T11:26:35.599Z,41.69
2024-05-09T11:31:50.552Z,44.80
2024-05-09T11:36:55.441Z,48.02
2024-05-09T11:42:00.843Z,52.19
2024-05-09T11:47:07.122Z,48.79
2024-05-09T11:52:12.051Z,47.69
2024-05-09T11:57:16.849Z,46.85
2024-05-09T12:02:21.926Z,46.13
2024-05-09T12:07:27.032Z,45.00
2024-05-09T12:12:32.958Z,48.06
2024-05-09T12:17:39.080Z,50.31
2024-05-09T12:22:43.903Z,46.77
2024-05-09T12:27:48.896Z,48.64
2024-05-09T12:32:53.858Z,46.47
2024-05-09T12:37:58.893Z,45.30
2024-05-09T12:43:03.704Z,48.10
2024-05-09T12:48:12.171Z,48.39
2024-05-09T12:53:17.700Z,49.23
2024-05-09T12:58:22.956Z,46.08
2024-05-09T13:03:28.006Z,43.69
2024-05-09T13:08:32.863Z,42.89
2024-05-09T13:13:37.702Z,44.62
2024-05-09T13:18:44.126Z,46.46
2024-05-09T13:23:49.036Z,46.64
2024-05-09T13:28:53.820Z,47.87
2024-05-09T13:33:58.669Z,47.63
2024-05-09T13:39:03.883Z,43.26
2024-05-09T13:44:09.710Z,46.64
2024-05-09T13:49:17.024Z,50.09
2024-05-09T13:54:22.782Z,50.88
2024-05-09T13:59:27.838Z,47.89
2024-05-09T14:04:32.762Z,44.86
2024-05-09T14:09:37.714Z,43.60
2024-05-09T14:14:42.602Z,49.03
2024-05-09T14:19:47.445Z,44.63
2024-05-09T14:24:52.479Z,43.61
2024-05-09T14:29:57.262Z,40.06
2024-05-09T14:35:02.081Z,43.11
2024-05-09T14:40:09.527Z,42.19
2024-05-09T14:45:19.454Z,41.63
2024-05-09T14:50:34.404Z,42.53
2024-05-09T14:55:43.752Z,43.31
2024-05-09T15:00:51.335Z,44.84
2024-05-09T15:05:57.523Z,47.13
2024-05-09T15:11:02.390Z,41.66
2024-05-09T15:16:07.965Z,40.85
2024-05-09T15:21:12.808Z,40.18
2024-05-09T15:26:18.153Z,42.70
2024-05-09T15:31:23.053Z,45.18
2024-05-09T15:36:27.990Z,39.78
2024-05-09T15:41:32.766Z,39.29
2024-05-09T15:46:37.965Z,40.03
2024-05-09T15:51:42.897Z,40.54
2024-05-09T15:56:49.248Z,42.96
2024-05-09T16:01:54.411Z,40.51
2024-05-09T16:06:59.390Z,38.87
2024-05-09T16:12:04.228Z,38.63
2024-05-09T16:17:09.174Z,39.28
2024-05-09T16:22:14.108Z,43.29
2024-05-09T16:27:19.157Z,41.15
2024-05-09T16:32:24.061Z,41.15
2024-05-09T16:37:29.780Z,39.89
2024-05-09T16:42:35.322Z,41.79
2024-05-09T16:47:40.251Z,38.17
2024-05-09T16:52:45.287Z,42.77
2024-05-09T16:57:53.395Z,39.75
2024-05-09T17:02:58.306Z,38.64
2024-05-09T17:08:03.367Z,40.84
2024-05-09T17:13:08.524Z,39.79
2024-05-09T17:18:13.434Z,41.42
2024-05-09T17:23:21.386Z,42.90
2024-05-09T17:28:26.508Z,40.94
2024-05-09T17:33:31.903Z,41.70
2024-05-09T17:38:36.974Z,41.49
2024-05-09T17:43:41.791Z,42.42
2024-05-09T17:48:46.752Z,41.51
2024-05-09T17:53:51.606Z,41.98
2024-05-09T17:58:56.650Z,41.41
2024-05-09T18:04:01.626Z,41.56
2024-05-09T18:09:06.888Z,41.66
2024-05-09T18:14:11.683Z,41.89
2024-05-09T18:19:16.639Z,41.08
2024-05-09T18:24:22.222Z,41.48
2024-05-09T18:29:27.045Z,41.14
2024-05-09T18:34:33.153Z,40.62
2024-05-09T18:39:38.209Z,40.12
2024-05-09T18:44:44.946Z,40.56
2024-05-09T18:49:50.690Z,40.59
2024-05-09T18:54:57.904Z,41.06
2024-05-09T19:00:04.183Z,41.01
2024-05-09T19:05:10.268Z,41.57
2024-05-09T19:10:22.491Z,42.35
2024-05-09T19:15:30.965Z,41.70
2024-05-09T19:20:37.788Z,41.95
2024-05-09T19:25:45.492Z,41.88
2024-05-09T19:30:50.566Z,42.41
2024-05-09T19:35:55.379Z,42.63
2024-05-09T19:41:00.366Z,44.37
2024-05-09T19:46:05.753Z,43.14
2024-05-09T19:51:10.640Z,43.05
2024-05-09T19:56:16.648Z,44.76
2024-05-09T20:01:21.544Z,45.15
2024-05-09T20:06:28.179Z,45.58
2024-05-09T20:11:34.061Z,46.67
2024-05-09T20:16:43.987Z,48.09
2024-05-09T20:21:49.335Z,49.17
2024-05-09T20:26:55.440Z,49.89
2024-05-09T20:32:00.914Z,51.66
2024-05-09T20:37:09.224Z,52.22
2024-05-09T20:42:14.884Z,52.14
2024-05-09T20:47:21.000Z,52.10
2024-05-09T20:52:25.904Z,52.60
2024-05-09T20:57:32.403Z,51.41
2024-05-09T21:02:38.621Z,51.69
2024-05-09T21:07:44.518Z,52.40
2024-05-09T21:12:49.631Z,53.91
2024-05-09T21:17:55.724Z,53.92
2024-05-09T21:23:01.282Z,54.10
2024-05-09T21:28:06.775Z,54.92
2024-05-09T21:33:15.068Z,55.69
2024-05-09T21:38:20.284Z,54.00
2024-05-09T21:43:26.842Z,53.69
2024-05-09T21:48:31.798Z,52.70
2024-05-09T21:53:37.957Z,55.07
2024-05-09T21:58:44.128Z,54.75
2024-05-09T22:03:50.327Z,54.49
2024-05-09T22:08:55.296Z,55.12
2024-05-09T22:14:00.090Z,55.25
2024-05-09T22:19:05.184Z,55.37
2024-05-09T22:24:10.609Z,55.44
2024-05-09T22:29:15.443Z,55.45
2024-05-09T22:34:20.502Z,55.30
2024-05-09T22:39:25.813Z,56.02
2024-05-09T22:44:30.630Z,56.14
2024-05-09T22:49:35.472Z,56.25
2024-05-09T22:54:40.305Z,55.46
2024-05-09T22:59:45.080Z,55.76
2024-05-09T23:04:50.125Z,56.80
2024-05-09T23:09:55.036Z,58.08
2024-05-09T23:15:00.030Z,58.16
2024-05-09T23:20:06.876Z,57.96
2024-05-09T23:25:14.575Z,57.77
2024-05-09T23:30:29.149Z,58.52
2024-05-09T23:35:42.149Z,58.24
2024-05-09T23:40:47.016Z,57.55
2024-05-09T23:45:51.823Z,57.98
2024-05-09T23:50:56.628Z,59.02
2024-05-09T23:56:01.422Z,58.22
